Terminal Aerodrome Forecast
Issued by NWS Memphis, TN

Home | Current Version | Previous Version | Text Only | Print | Product List | Glossary On
Versions: 1 2 3 4 5 6 7 8 9 10 11 12 13 14 15 16 17 18 19 20 21 22 23
000
FTUS44 KMEG 301526 AAC
TAFJBR
TAF AMD
KJBR 301526Z 3015/3112 20005KT P6SM SCT015
     FM301700 23005KT P6SM SCT035
     FM302000 22004KT P6SM VCTS FEW045CB BKN050
     FM310100 00000KT P6SM SCT250=

USA.gov is the U.S. government's official web portal to all federal, state and local government web resources and services.